createdAt,value
2022-12-11T00:00:52.390Z,100.00
2022-12-11T00:03:40.143Z,100.00
2022-12-11T00:06:09.041Z,100.00
2022-12-11T00:08:37.144Z,99.57
2022-12-11T00:11:04.154Z,99.11
2022-12-11T00:13:31.436Z,98.96
2022-12-11T00:15:59.504Z,99.30
2022-12-11T00:18:26.985Z,99.79
2022-12-11T00:20:54.009Z,100.00
2022-12-11T00:23:21.504Z,100.00
2022-12-11T00:25:48.606Z,100.00
2022-12-11T00:28:22.620Z,100.00
2022-12-11T00:30:50.089Z,100.00
2022-12-11T00:33:18.024Z,100.00
2022-12-11T00:35:47.518Z,100.00
2022-12-11T00:38:17.215Z,100.00
2022-12-11T00:40:44.757Z,100.00
2022-12-11T00:43:13.346Z,100.00
2022-12-11T00:45:46.856Z,100.00
2022-12-11T00:48:14.506Z,100.00
2022-12-11T00:50:41.598Z,100.00
2022-12-11T00:53:09.338Z,100.00
2022-12-11T00:55:38.643Z,100.00
2022-12-11T00:58:07.650Z,100.00
2022-12-11T01:00:34.618Z,100.00
2022-12-11T01:03:02.244Z,100.00
2022-12-11T01:05:31.537Z,100.00
2022-12-11T01:07:59.213Z,100.00
2022-12-11T01:10:27.195Z,100.00
2022-12-11T01:13:06.967Z,100.00
2022-12-11T01:15:43.550Z,100.00
2022-12-11T01:18:14.113Z,100.00
2022-12-11T01:20:42.752Z,100.00
2022-12-11T01:23:13.106Z,100.00
2022-12-11T01:25:40.904Z,100.00
2022-12-11T01:28:08.973Z,100.00
2022-12-11T01:30:36.692Z,100.00
2022-12-11T01:33:04.663Z,100.00
2022-12-11T01:35:31.649Z,100.00
2022-12-11T01:37:59.439Z,100.00
2022-12-11T01:40:26.463Z,100.00
2022-12-11T01:42:53.784Z,100.00
2022-12-11T01:45:29.726Z,100.00
2022-12-11T01:48:11.031Z,100.00
2022-12-11T01:51:09.543Z,100.00
2022-12-11T01:53:45.934Z,100.00
2022-12-11T01:56:13.353Z,100.00
2022-12-11T01:58:51.627Z,100.00
2022-12-11T02:01:35.878Z,100.00
2022-12-11T02:04:04.498Z,100.00
2022-12-11T02:06:51.175Z,100.00
2022-12-11T02:09:31.627Z,100.00
2022-12-11T02:12:07.826Z,100.00
2022-12-11T02:14:53.409Z,100.00
2022-12-11T02:17:51.248Z,100.00
2022-12-11T02:20:38.191Z,100.00
2022-12-11T02:23:44.178Z,100.00
2022-12-11T02:26:42.989Z,100.00
2022-12-11T02:29:18.392Z,100.00
2022-12-11T02:31:59.152Z,100.00
2022-12-11T02:34:44.858Z,100.00
2022-12-11T02:37:21.973Z,100.00
2022-12-11T02:39:54.887Z,100.00
2022-12-11T02:42:26.266Z,100.00
2022-12-11T02:44:57.240Z,100.00
2022-12-11T02:47:28.432Z,100.00
2022-12-11T02:49:58.300Z,100.00
2022-12-11T02:52:27.800Z,100.00
2022-12-11T02:54:59.760Z,100.00
2022-12-11T02:57:42.527Z,100.00
2022-12-11T03:00:10.695Z,100.00
2022-12-11T03:02:40.499Z,100.00
2022-12-11T03:05:08.794Z,100.00
2022-12-11T03:07:40.683Z,100.00
2022-12-11T03:10:10.497Z,100.00
2022-12-11T03:12:43.117Z,100.00
2022-12-11T03:15:17.307Z,100.00
2022-12-11T03:18:08.458Z,100.00
2022-12-11T03:20:44.105Z,100.00
2022-12-11T03:24:03.868Z,100.00
2022-12-11T03:26:36.488Z,100.00
2022-12-11T03:29:19.957Z,100.00
2022-12-11T03:31:57.652Z,100.00
2022-12-11T03:34:34.092Z,100.00
2022-12-11T03:37:03.165Z,100.00
2022-12-11T03:39:36.329Z,100.00
2022-12-11T03:42:08.569Z,100.00
2022-12-11T03:44:37.008Z,100.00
2022-12-11T03:47:08.143Z,100.00
2022-12-11T03:49:40.794Z,100.00
2022-12-11T03:52:09.734Z,100.00
2022-12-11T03:54:39.604Z,100.00
2022-12-11T03:57:09.513Z,100.00
2022-12-11T03:59:36.924Z,100.00
2022-12-11T04:02:11.167Z,100.00
2022-12-11T04:04:39.669Z,100.00
2022-12-11T04:07:07.764Z,100.00
2022-12-11T04:09:35.771Z,100.00
2022-12-11T04:12:02.935Z,100.00
2022-12-11T04:14:49.640Z,100.00
2022-12-11T04:17:36.662Z,100.00
2022-12-11T04:20:23.708Z,100.00
2022-12-11T04:23:09.595Z,100.00
2022-12-11T04:25:37.273Z,100.00
2022-12-11T04:28:04.220Z,100.00
2022-12-11T04:30:34.293Z,100.00
2022-12-11T04:33:01.570Z,100.00
2022-12-11T04:35:29.582Z,100.00
2022-12-11T04:37:56.617Z,100.00
2022-12-11T04:40:24.580Z,100.00
2022-12-11T04:42:51.700Z,100.00
2022-12-11T04:45:21.924Z,100.00
2022-12-11T04:47:48.990Z,100.00
2022-12-11T04:50:16.866Z,100.00
2022-12-11T04:52:44.056Z,100.00
2022-12-11T04:55:12.759Z,100.00
2022-12-11T04:57:40.149Z,100.00
2022-12-11T05:00:11.079Z,100.00
2022-12-11T05:02:39.083Z,100.00
2022-12-11T05:05:11.021Z,100.00
2022-12-11T05:07:38.761Z,100.00
2022-12-11T05:10:11.138Z,100.00
2022-12-11T05:12:39.329Z,100.00
2022-12-11T05:15:11.106Z,100.00
2022-12-11T05:17:43.181Z,100.00
2022-12-11T05:20:11.149Z,100.00
2022-12-11T05:22:38.971Z,100.00
2022-12-11T05:25:07.147Z,100.00
2022-12-11T05:27:38.817Z,100.00
2022-12-11T05:30:08.541Z,100.00
2022-12-11T05:32:35.950Z,100.00
2022-12-11T05:35:05.783Z,100.00
2022-12-11T05:37:34.660Z,100.00
2022-12-11T05:40:19.658Z,100.00
2022-12-11T05:42:46.906Z,100.00
2022-12-11T05:45:14.795Z,100.00
2022-12-11T05:47:42.981Z,100.00
2022-12-11T05:50:11.082Z,100.00
2022-12-11T05:52:39.022Z,100.00
2022-12-11T05:55:10.223Z,100.00
2022-12-11T05:57:39.516Z,100.00
2022-12-11T06:00:10.396Z,100.00
2022-12-11T06:02:37.554Z,100.00
2022-12-11T06:05:10.506Z,100.00
2022-12-11T06:07:38.003Z,100.00
2022-12-11T06:10:07.928Z,100.00
2022-12-11T06:15:17.821Z,100.00
2022-12-11T06:17:44.842Z,100.00
2022-12-11T06:20:13.625Z,100.00
2022-12-11T06:22:41.391Z,100.00
2022-12-11T06:25:10.824Z,100.00
2022-12-11T06:33:04.154Z,100.00
2022-12-11T06:35:36.149Z,100.00
2022-12-11T06:38:11.205Z,100.00
2022-12-11T06:40:54.660Z,100.00
2022-12-11T06:43:21.960Z,100.00
2022-12-11T06:45:49.352Z,100.00
2022-12-11T06:48:16.661Z,100.00
2022-12-11T06:50:44.489Z,100.00
2022-12-11T06:53:18.241Z,100.00
2022-12-11T06:55:48.687Z,100.00
2022-12-11T06:58:16.931Z,100.00
2022-12-11T07:00:44.373Z,100.00
2022-12-11T07:03:11.880Z,100.00
2022-12-11T07:05:41.468Z,100.00
2022-12-11T07:08:10.166Z,100.00
2022-12-11T07:10:40.607Z,100.00
2022-12-11T07:13:07.654Z,100.00
2022-12-11T07:15:40.522Z,100.00
2022-12-11T07:18:08.957Z,100.00
2022-12-11T07:20:36.554Z,100.00
2022-12-11T07:23:04.021Z,100.00
2022-12-11T07:25:32.344Z,100.00
2022-12-11T07:27:59.279Z,100.00
2022-12-11T07:30:28.291Z,100.00
2022-12-11T07:32:55.363Z,100.00
2022-12-11T07:35:22.851Z,100.00
2022-12-11T07:37:51.122Z,100.00
2022-12-11T07:40:18.601Z,100.00
2022-12-11T07:42:50.014Z,100.00
2022-12-11T07:45:18.048Z,100.00
2022-12-11T07:47:46.423Z,100.00
2022-12-11T07:50:14.681Z,100.00
2022-12-11T07:52:41.892Z,100.00
2022-12-11T07:55:26.639Z,100.00
2022-12-11T07:57:55.313Z,100.00
2022-12-11T08:00:26.148Z,100.00
2022-12-11T08:02:53.859Z,100.00
2022-12-11T08:05:20.895Z,100.00
2022-12-11T08:10:35.546Z,100.00
2022-12-11T08:13:03.371Z,100.00
2022-12-11T08:15:30.606Z,100.00
2022-12-11T08:17:58.513Z,100.00
2022-12-11T08:20:25.913Z,100.00
2022-12-11T08:22:59.140Z,100.00
2022-12-11T08:25:26.659Z,100.00
2022-12-11T08:28:09.149Z,100.00
2022-12-11T08:30:44.516Z,100.00
2022-12-11T08:33:11.543Z,100.00
2022-12-11T08:35:41.811Z,100.00
2022-12-11T08:38:08.919Z,100.00
2022-12-11T08:40:36.694Z,100.00
2022-12-11T08:43:05.386Z,100.00
2022-12-11T08:45:34.243Z,100.00
2022-12-11T08:48:04.981Z,100.00
2022-12-11T08:50:32.346Z,100.00
2022-12-11T08:52:59.450Z,100.00
2022-12-11T08:55:27.150Z,100.00
2022-12-11T08:57:55.467Z,100.00
2022-12-11T09:00:25.705Z,100.00
2022-12-11T09:02:55.648Z,99.92
2022-12-11T09:05:23.336Z,99.62
2022-12-11T09:07:50.429Z,99.68
2022-12-11T09:10:18.186Z,99.79
2022-12-11T09:12:45.229Z,99.26
2022-12-11T09:15:13.017Z,99.13
2022-12-11T09:17:40.287Z,99.39
2022-12-11T09:20:08.297Z,99.17
2022-12-11T09:22:35.274Z,98.86
2022-12-11T09:25:07.741Z,98.39
2022-12-11T09:27:35.652Z,97.88
2022-12-11T09:30:03.398Z,97.82
2022-12-11T09:32:30.579Z,97.82
2022-12-11T09:34:58.065Z,97.82
2022-12-11T09:37:25.438Z,97.26
2022-12-11T09:39:55.415Z,97.11
2022-12-11T09:42:59.817Z,96.92
2022-12-11T09:46:12.059Z,96.74
2022-12-11T09:48:45.692Z,96.81
2022-12-11T09:51:45.280Z,96.65
2022-12-11T09:54:18.406Z,96.13
2022-12-11T09:56:55.747Z,96.12
2022-12-11T09:59:38.331Z,96.45
2022-12-11T10:02:56.561Z,95.87
2022-12-11T10:06:17.492Z,95.62
2022-12-11T10:09:12.612Z,95.53
2022-12-11T10:12:01.764Z,95.50
2022-12-11T10:14:52.377Z,95.17
2022-12-11T10:17:33.452Z,94.77
2022-12-11T10:20:26.495Z,94.75
2022-12-11T10:23:09.129Z,94.14
2022-12-11T10:25:45.193Z,93.88
2022-12-11T10:28:20.391Z,93.77
2022-12-11T10:31:04.426Z,93.45
2022-12-11T10:33:41.340Z,93.47
2022-12-11T10:36:10.784Z,93.04
2022-12-11T10:38:57.948Z,92.83
2022-12-11T10:41:42.242Z,92.58
2022-12-11T10:44:29.050Z,92.60
2022-12-11T10:47:11.660Z,91.85
2022-12-11T10:49:46.302Z,91.68
2022-12-11T10:52:25.985Z,91.31
2022-12-11T10:55:01.359Z,91.14
2022-12-11T10:57:35.585Z,91.42
2022-12-11T11:00:06.847Z,91.40
2022-12-11T11:02:43.638Z,91.74
2022-12-11T11:05:28.775Z,91.77
2022-12-11T11:08:28.097Z,91.40
2022-12-11T11:11:00.684Z,91.21
2022-12-11T11:13:31.551Z,91.00
2022-12-11T11:16:11.904Z,90.92
2022-12-11T11:18:46.305Z,90.66
2022-12-11T11:21:19.372Z,91.03
2022-12-11T11:23:53.621Z,90.79
2022-12-11T11:26:23.161Z,90.96
2022-12-11T11:28:55.301Z,91.18
2022-12-11T11:31:35.581Z,90.91
2022-12-11T11:34:16.505Z,90.76
2022-12-11T11:36:43.293Z,90.70
2022-12-11T11:39:36.993Z,90.49
2022-12-11T11:42:21.257Z,90.12
2022-12-11T11:45:07.168Z,89.96
2022-12-11T11:47:44.581Z,89.81
2022-12-11T11:50:27.325Z,90.16
2022-12-11T11:53:13.092Z,90.24
2022-12-11T11:56:02.759Z,89.91
2022-12-11T11:58:42.872Z,90.42
2022-12-11T12:01:19.892Z,90.28
2022-12-11T12:03:48.685Z,90.03
2022-12-11T12:06:25.955Z,90.09
2022-12-11T12:09:01.592Z,90.08
2022-12-11T12:11:39.136Z,89.97
2022-12-11T12:14:51.775Z,89.39
2022-12-11T12:17:23.347Z,88.13
2022-12-11T12:19:56.567Z,88.50
2022-12-11T12:22:49.740Z,88.23
2022-12-11T12:25:41.227Z,87.77
2022-12-11T12:28:20.653Z,87.32
2022-12-11T12:31:30.096Z,87.97
2022-12-11T12:34:18.114Z,88.21
2022-12-11T12:37:14.119Z,87.41
2022-12-11T12:44:11.352Z,87.25
2022-12-11T12:46:54.917Z,87.07
2022-12-11T12:49:40.333Z,86.73
2022-12-11T12:52:27.128Z,86.86
2022-12-11T12:55:22.263Z,86.67
2022-12-11T12:58:07.880Z,86.56
2022-12-11T13:00:45.217Z,85.73
2022-12-11T13:03:30.458Z,85.82
2022-12-11T13:06:02.088Z,85.43
2022-12-11T13:08:37.922Z,84.99
2022-12-11T13:11:12.133Z,85.11
2022-12-11T13:13:51.610Z,85.24
2022-12-11T13:16:27.285Z,85.25
2022-12-11T13:18:57.212Z,85.21
2022-12-11T13:21:37.649Z,85.32
2022-12-11T13:24:28.504Z,85.91
2022-12-11T13:26:57.212Z,85.67
2022-12-11T13:30:00.918Z,86.01
2022-12-11T13:33:19.365Z,86.46
2022-12-11T13:35:53.937Z,86.54
2022-12-11T13:38:29.893Z,86.60
2022-12-11T13:41:02.626Z,86.66
2022-12-11T13:43:39.045Z,86.83
2022-12-11T13:49:01.116Z,87.12
2022-12-11T13:51:32.700Z,87.37
2022-12-11T13:54:17.961Z,87.18
2022-12-11T13:57:00.564Z,87.71
2022-12-11T13:59:36.383Z,87.51
2022-12-11T14:02:43.001Z,87.86
2022-12-11T14:08:28.883Z,88.12
2022-12-11T14:11:05.033Z,88.76
2022-12-11T14:17:07.050Z,89.29
2022-12-11T14:20:01.654Z,89.55
2022-12-11T14:22:32.351Z,89.92
2022-12-11T14:25:03.718Z,90.28
2022-12-11T14:27:34.012Z,90.45
2022-12-11T14:30:11.287Z,90.41
2022-12-11T14:32:46.101Z,91.03
2022-12-11T14:35:39.139Z,90.88
2022-12-11T14:38:18.203Z,90.79
2022-12-11T14:40:52.568Z,91.39
2022-12-11T14:43:35.102Z,91.98
2022-12-11T14:46:18.195Z,92.24
2022-12-11T14:48:59.141Z,92.52
2022-12-11T14:51:40.690Z,93.14
2022-12-11T14:54:20.382Z,93.34
2022-12-11T14:56:49.813Z,93.24
2022-12-11T14:59:31.464Z,93.61
2022-12-11T15:02:21.264Z,93.78
2022-12-11T15:05:07.678Z,94.62
2022-12-11T15:07:43.876Z,94.31
2022-12-11T15:10:42.579Z,93.97
2022-12-11T15:13:11.461Z,93.93
2022-12-11T15:15:46.490Z,93.82
2022-12-11T15:18:23.395Z,93.64
2022-12-11T15:21:03.724Z,93.75
2022-12-11T15:23:31.426Z,93.87
2022-12-11T15:26:05.717Z,93.84
2022-12-11T15:28:48.829Z,94.03
2022-12-11T15:31:34.760Z,94.07
2022-12-11T15:34:03.272Z,94.10
2022-12-11T15:36:35.827Z,94.66
2022-12-11T15:39:09.165Z,94.70
2022-12-11T15:41:42.074Z,94.84
2022-12-11T15:44:20.296Z,94.84
2022-12-11T15:47:17.953Z,95.20
2022-12-11T15:49:46.340Z,96.00
2022-12-11T15:52:17.666Z,96.12
2022-12-11T15:54:46.035Z,96.64
2022-12-11T15:57:21.268Z,96.54
2022-12-11T15:59:54.134Z,96.64
2022-12-11T16:05:38.570Z,97.82
2022-12-11T16:08:06.553Z,99.09
2022-12-11T16:10:33.824Z,99.30
2022-12-11T16:13:37.867Z,99.02
2022-12-11T16:16:08.909Z,98.90
2022-12-11T16:18:38.175Z,98.76
2022-12-11T16:21:06.663Z,98.82
2022-12-11T16:23:34.137Z,98.32
2022-12-11T16:26:07.226Z,98.50
2022-12-11T16:28:35.749Z,98.55
2022-12-11T16:31:03.092Z,98.25
2022-12-11T16:33:41.632Z,98.14
2022-12-11T16:36:19.702Z,98.01
2022-12-11T16:38:54.205Z,98.01
2022-12-11T16:41:25.776Z,98.09
2022-12-11T16:43:57.127Z,97.29
2022-12-11T16:46:24.655Z,97.31
2022-12-11T16:48:52.404Z,96.98
2022-12-11T16:51:19.650Z,97.63
2022-12-11T16:53:57.317Z,97.65
2022-12-11T16:56:25.161Z,98.00
2022-12-11T16:58:53.679Z,97.27
2022-12-11T17:01:20.859Z,97.29
2022-12-11T17:03:52.764Z,97.66
2022-12-11T17:06:28.164Z,97.71
2022-12-11T17:09:02.016Z,97.83
2022-12-11T17:11:29.188Z,97.86
2022-12-11T17:14:00.566Z,98.21
2022-12-11T17:16:30.538Z,98.40
2022-12-11T17:19:00.852Z,98.01
2022-12-11T17:21:53.902Z,97.85
2022-12-11T17:24:20.552Z,98.25
2022-12-11T17:26:47.642Z,98.47
2022-12-11T17:29:15.138Z,98.73
2022-12-11T17:31:42.594Z,98.86
2022-12-11T17:34:12.417Z,99.00
2022-12-11T17:36:39.533Z,98.75
2022-12-11T17:39:14.055Z,98.89
2022-12-11T17:41:41.389Z,98.59
2022-12-11T17:44:15.211Z,98.74
2022-12-11T17:46:43.230Z,98.64
2022-12-11T17:49:15.089Z,98.29
2022-12-11T17:51:42.396Z,97.60
2022-12-11T17:54:10.153Z,97.27
2022-12-11T17:56:40.753Z,97.34
2022-12-11T17:59:18.938Z,96.77
2022-12-11T18:01:55.298Z,95.97
2022-12-11T18:04:43.115Z,95.71
2022-12-11T18:07:15.918Z,95.40
2022-12-11T18:09:44.326Z,95.22
2022-12-11T18:12:14.135Z,95.65
2022-12-11T18:14:45.291Z,96.80
2022-12-11T18:18:05.855Z,97.11
2022-12-11T18:21:08.449Z,97.23
2022-12-11T18:59:37.319Z,95.25
2022-12-11T19:06:55.548Z,93.39
2022-12-11T19:17:14.668Z,96.88
2022-12-11T19:19:58.291Z,97.70
2022-12-11T19:22:25.801Z,98.34
2022-12-11T19:24:59.456Z,98.96
2022-12-11T19:27:37.777Z,99.25
2022-12-11T19:30:22.928Z,99.45
2022-12-11T19:32:59.276Z,99.88
2022-12-11T19:35:28.888Z,99.90
2022-12-11T19:37:58.704Z,100.00
2022-12-11T19:40:30.941Z,100.00
2022-12-11T19:42:59.799Z,100.00
2022-12-11T19:45:27.350Z,100.00
2022-12-11T19:47:57.865Z,100.00
2022-12-11T19:50:39.932Z,100.00
2022-12-11T19:53:23.926Z,99.57
2022-12-11T19:55:59.302Z,99.64
2022-12-11T19:58:50.574Z,98.87
2022-12-11T20:01:24.946Z,98.36
2022-12-11T20:04:20.524Z,97.71
2022-12-11T20:06:49.647Z,98.21
2022-12-11T20:09:37.008Z,97.88
2022-12-11T20:12:28.105Z,96.92
2022-12-11T20:14:56.125Z,97.33
2022-12-11T20:17:29.780Z,95.78
2022-12-11T20:19:56.996Z,94.84
2022-12-11T20:22:27.786Z,94.76
2022-12-11T20:24:55.895Z,93.72
2022-12-11T20:27:26.378Z,93.38
2022-12-11T20:29:53.881Z,94.36
2022-12-11T20:32:25.253Z,94.21
2022-12-11T20:34:59.094Z,93.43
2022-12-11T20:37:27.136Z,93.60
2022-12-11T20:39:54.873Z,93.86
2022-12-11T20:42:23.114Z,92.47
2022-12-11T20:44:53.269Z,92.77
2022-12-11T20:47:21.180Z,93.19
2022-12-11T20:49:59.310Z,93.65
2022-12-11T20:52:52.899Z,93.06
2022-12-11T20:55:38.577Z,93.09
2022-12-11T20:58:06.079Z,92.52
2022-12-11T21:00:36.309Z,93.19
2022-12-11T21:03:04.343Z,93.40
2022-12-11T21:05:44.185Z,92.94
2022-12-11T21:08:12.931Z,92.65
2022-12-11T21:10:45.038Z,92.45
2022-12-11T21:20:28.110Z,91.86
2022-12-11T21:24:03.243Z,91.63
2022-12-11T21:26:34.026Z,92.42
2022-12-11T21:29:48.656Z,93.28
2022-12-11T21:32:31.499Z,93.94
2022-12-11T21:35:17.016Z,94.51
2022-12-11T21:41:56.017Z,94.19
2022-12-11T21:47:31.449Z,93.74
2022-12-11T21:50:07.546Z,93.44
2022-12-11T21:52:37.428Z,93.41
2022-12-11T21:55:06.301Z,93.36
2022-12-11T21:57:33.543Z,93.54
2022-12-11T22:00:02.119Z,92.81
2022-12-11T22:02:42.185Z,91.94
2022-12-11T22:05:10.277Z,91.80
2022-12-11T22:07:43.452Z,92.03
2022-12-11T22:10:17.007Z,90.38
2022-12-11T22:12:48.779Z,90.23
2022-12-11T22:15:22.571Z,90.36
2022-12-11T22:17:52.659Z,90.60
2022-12-11T22:20:20.063Z,91.50
2022-12-11T22:22:47.573Z,91.25
2022-12-11T22:25:14.966Z,91.45
2022-12-11T22:27:42.524Z,91.45
2022-12-11T22:30:10.274Z,90.41
2022-12-11T22:32:37.631Z,90.79
2022-12-11T22:35:05.077Z,91.26
2022-12-11T22:37:34.888Z,90.79
2022-12-11T22:40:01.734Z,91.36
2022-12-11T22:42:29.349Z,91.36
2022-12-11T22:45:00.582Z,91.00
2022-12-11T22:47:29.250Z,90.75
2022-12-11T22:49:56.357Z,91.38
2022-12-11T22:52:25.602Z,91.29
2022-12-11T22:54:52.941Z,91.04
2022-12-11T22:57:20.595Z,91.73
2022-12-11T22:59:50.199Z,91.39
2022-12-11T23:02:19.131Z,90.94
2022-12-11T23:04:46.543Z,92.40
2022-12-11T23:07:20.729Z,91.48
2022-12-11T23:09:47.875Z,91.29
2022-12-11T23:12:16.260Z,92.44
2022-12-11T23:14:43.960Z,92.46
2022-12-11T23:17:12.730Z,92.85
2022-12-11T23:19:40.167Z,93.35
2022-12-11T23:22:08.928Z,93.72
2022-12-11T23:24:35.870Z,94.10
2022-12-11T23:27:03.573Z,94.54
2022-12-11T23:29:31.327Z,95.23
2022-12-11T23:31:59.541Z,94.99
2022-12-11T23:34:26.846Z,94.74
2022-12-11T23:36:58.184Z,94.64
2022-12-11T23:39:26.500Z,94.65
2022-12-11T23:42:03.008Z,94.49
2022-12-11T23:44:30.060Z,94.75
2022-12-11T23:46:58.171Z,94.73
2022-12-11T23:49:27.204Z,94.46
2022-12-11T23:51:59.958Z,94.81
2022-12-11T23:55:00.026Z,95.02
2022-12-11T23:57:43.714Z,94.04
